createdAt,value
2023-05-16T00:01:51.392Z,52185.69
2023-05-16T00:06:56.078Z,52201.69
2023-05-16T00:12:00.429Z,52123.69
2023-05-16T00:17:11.988Z,52163.69
2023-05-16T00:22:16.822Z,52149.69
2023-05-16T00:27:21.851Z,52173.69
2023-05-16T00:32:28.027Z,52145.69
2023-05-16T00:37:32.157Z,52133.69
2023-05-16T00:42:37.398Z,52159.69
2023-05-16T00:47:43.116Z,52095.69
2023-05-16T00:52:47.490Z,52101.69
2023-05-16T00:57:52.133Z,52161.69
2023-05-16T01:02:58.588Z,52099.69
2023-05-16T01:08:02.805Z,52091.69
2023-05-16T01:13:14.105Z,52107.69
2023-05-16T01:18:30.731Z,52125.69
2023-05-16T01:23:43.804Z,52101.69
2023-05-16T01:28:50.882Z,52137.69
2023-05-16T01:33:55.975Z,52109.69
2023-05-16T01:39:08.985Z,52121.69
2023-05-16T01:44:20.530Z,52153.69
2023-05-16T01:49:28.520Z,52157.69
2023-05-16T01:54:34.567Z,52151.69
2023-05-16T01:59:41.273Z,52167.69
2023-05-16T02:04:45.544Z,52163.69
2023-05-16T02:09:52.652Z,52139.69
2023-05-16T02:14:58.255Z,52119.69
2023-05-16T02:20:07.251Z,52147.69
2023-05-16T02:25:11.700Z,52115.69
2023-05-16T02:30:17.352Z,52071.69
2023-05-16T02:35:21.694Z,52061.69
2023-05-16T02:40:25.801Z,52061.69
2023-05-16T02:45:31.863Z,52065.69
2023-05-16T02:50:36.501Z,51999.69
2023-05-16T02:55:41.041Z,52045.69
2023-05-16T03:00:46.837Z,52033.69
2023-05-16T03:05:52.119Z,52033.69
2023-05-16T03:10:56.228Z,52001.69
2023-05-16T03:16:02.496Z,51981.69
2023-05-16T03:21:06.957Z,51995.69
2023-05-16T03:26:11.663Z,51993.69
2023-05-16T03:31:17.256Z,52019.69
2023-05-16T03:36:24.910Z,52007.69
2023-05-16T03:41:29.849Z,52007.69
2023-05-16T03:46:36.377Z,52025.69
2023-05-16T03:51:40.567Z,52037.69
2023-05-16T03:56:44.832Z,52069.69
2023-05-16T04:01:51.798Z,52027.69
2023-05-16T04:06:56.146Z,51997.69
2023-05-16T04:12:02.113Z,52029.69
2023-05-16T04:17:07.912Z,52033.69
2023-05-16T04:22:12.276Z,51999.69
2023-05-16T04:27:16.408Z,52033.69
2023-05-16T04:32:22.117Z,52047.69
2023-05-16T04:37:26.887Z,52057.69
2023-05-16T04:42:31.284Z,52023.69
2023-05-16T04:47:36.932Z,52057.69
2023-05-16T04:52:41.113Z,52047.69
2023-05-16T04:57:45.494Z,52047.69
2023-05-16T05:02:51.101Z,52041.69
2023-05-16T05:07:55.600Z,52043.69
2023-05-16T05:13:00.248Z,52089.69
2023-05-16T05:18:06.331Z,52081.69
2023-05-16T05:23:10.864Z,52047.69
2023-05-16T05:28:15.103Z,52041.69
2023-05-16T05:33:21.255Z,52089.69
2023-05-16T05:38:25.778Z,52097.69
2023-05-16T05:43:30.115Z,52197.72
2023-05-16T05:48:36.313Z,52221.72
2023-05-16T05:53:40.491Z,52273.72
2023-05-16T05:58:44.633Z,52675.75
2023-05-16T06:03:50.473Z,53087.84
2023-05-16T06:08:54.613Z,52969.81
2023-05-16T06:13:59.133Z,53295.91
2023-05-16T06:19:04.695Z,53636.00
2023-05-16T06:24:08.993Z,53511.97
2023-05-16T06:29:13.694Z,53381.91
2023-05-16T06:34:19.212Z,53533.97
2023-05-16T06:39:23.638Z,53193.88
2023-05-16T06:44:28.162Z,54250.31
2023-05-16T06:49:34.334Z,54450.41
2023-05-16T06:54:38.528Z,55120.88
2023-05-16T06:59:43.137Z,54068.22
2023-05-16T07:04:49.168Z,54828.66
2023-05-16T07:09:53.859Z,54722.59
2023-05-16T07:14:58.226Z,55028.81
2023-05-16T07:20:05.586Z,54918.72
2023-05-16T07:25:13.100Z,54500.44
2023-05-16T07:30:17.291Z,53562.00
2023-05-16T07:35:23.426Z,53253.88
2023-05-16T07:40:29.721Z,52847.78
2023-05-16T07:45:33.985Z,52975.81
2023-05-16T07:50:40.183Z,52307.72
2023-05-16T07:55:44.625Z,53045.81
2023-05-16T08:00:48.857Z,53722.06
2023-05-16T08:05:54.655Z,54098.22
2023-05-16T08:10:59.021Z,54412.41
2023-05-16T08:16:03.333Z,55226.97
2023-05-16T08:21:09.747Z,54954.75
2023-05-16T08:26:13.948Z,54462.44
2023-05-16T08:31:18.269Z,56071.72
2023-05-16T08:36:24.138Z,55637.31
2023-05-16T08:41:28.632Z,55823.50
2023-05-16T08:46:35.959Z,54656.56
2023-05-16T08:51:42.570Z,53479.97
2023-05-16T08:56:48.705Z,53798.09
2023-05-16T09:01:53.258Z,53694.03
2023-05-16T09:06:58.862Z,53600.00
2023-05-16T09:12:03.033Z,53449.94
2023-05-16T09:17:10.796Z,52867.78
2023-05-16T09:22:17.871Z,52485.72
2023-05-16T09:27:22.430Z,52597.75
2023-05-16T09:32:27.321Z,52629.75
2023-05-16T09:37:32.942Z,52737.75
2023-05-16T09:42:37.553Z,52697.75
2023-05-16T09:47:46.949Z,52645.75
2023-05-16T09:52:52.396Z,52699.75
2023-05-16T09:57:57.496Z,52425.72
2023-05-16T10:03:05.878Z,52067.69
2023-05-16T10:08:15.403Z,51867.72
2023-05-16T10:13:21.426Z,51999.69
2023-05-16T10:18:31.208Z,52121.69
2023-05-16T10:23:37.387Z,51989.69
2023-05-16T10:28:42.763Z,52149.69
2023-05-16T10:33:48.778Z,52285.72
2023-05-16T10:38:55.270Z,52321.72
2023-05-16T10:44:00.540Z,52301.72
2023-05-16T10:49:21.364Z,52283.72
2023-05-16T10:54:36.349Z,52483.72
2023-05-16T10:59:45.625Z,52341.72
2023-05-16T11:04:51.811Z,52371.72
2023-05-16T11:10:09.228Z,52369.72
2023-05-16T11:15:26.010Z,52205.69
2023-05-16T11:20:33.202Z,52125.69
2023-05-16T11:25:41.569Z,52037.69
2023-05-16T11:30:47.155Z,51969.69
2023-05-16T11:36:15.941Z,52085.69
2023-05-16T11:41:23.536Z,52069.69
2023-05-16T11:46:27.870Z,51911.72
2023-05-16T11:51:32.432Z,51997.69
2023-05-16T11:56:38.918Z,51883.72
2023-05-16T12:01:43.255Z,51869.72
2023-05-16T12:07:00.870Z,51819.72
2023-05-16T12:12:09.385Z,51777.72
2023-05-16T12:17:13.582Z,51733.72
2023-05-16T12:22:18.956Z,51773.72
2023-05-16T12:27:28.678Z,51713.72
2023-05-16T12:32:38.657Z,51753.72
2023-05-16T12:37:45.336Z,51711.72
2023-05-16T12:42:52.949Z,51769.72
2023-05-16T12:47:57.510Z,51457.75
2023-05-16T12:53:02.773Z,51479.75
2023-05-16T12:58:09.386Z,51433.75
2023-05-16T13:03:14.016Z,51425.75
2023-05-16T13:08:18.598Z,51465.75
2023-05-16T13:13:35.575Z,51489.75
2023-05-16T13:18:40.857Z,51463.75
2023-05-16T13:23:45.520Z,51393.75
2023-05-16T13:28:53.237Z,51381.75
2023-05-16T13:33:57.612Z,51255.78
2023-05-16T13:39:02.167Z,51235.78
2023-05-16T13:44:08.428Z,51145.81
2023-05-16T13:49:12.640Z,51093.81
2023-05-16T13:54:17.351Z,51105.81
2023-05-16T13:59:44.685Z,50967.84
2023-05-16T14:04:49.751Z,50917.88
2023-05-16T14:09:57.403Z,50965.84
2023-05-16T14:15:03.569Z,50985.84
2023-05-16T14:20:10.924Z,51159.81
2023-05-16T14:25:15.452Z,51251.78
2023-05-16T14:30:21.144Z,51257.78
2023-05-16T14:35:25.688Z,51321.78
2023-05-16T14:40:30.438Z,51513.75
2023-05-16T14:45:36.160Z,51579.72
2023-05-16T14:50:40.574Z,51559.72
2023-05-16T14:55:45.399Z,51613.72
2023-05-16T15:00:51.570Z,51763.72
2023-05-16T15:05:56.440Z,51781.72
2023-05-16T15:11:00.802Z,51751.72
2023-05-16T15:16:07.997Z,51901.72
2023-05-16T15:21:12.678Z,51811.72
2023-05-16T15:26:18.576Z,51791.72
2023-05-16T15:31:24.274Z,51903.72
2023-05-16T15:36:29.152Z,52055.69
2023-05-16T15:41:56.937Z,52045.69
2023-05-16T15:46:59.065Z,52085.69
2023-05-16T15:52:03.396Z,52181.69
2023-05-16T15:57:07.859Z,52141.69
2023-05-16T16:02:13.698Z,52263.72
2023-05-16T16:07:18.009Z,52361.72
2023-05-16T16:12:22.873Z,52431.72
2023-05-16T16:17:28.705Z,52515.72
2023-05-16T16:22:33.482Z,52577.75
2023-05-16T16:27:37.913Z,52587.75
2023-05-16T16:32:44.013Z,52581.75
2023-05-16T16:38:02.452Z,52581.75
2023-05-16T16:43:10.684Z,52599.75
2023-05-16T16:48:16.650Z,52583.75
2023-05-16T16:53:20.894Z,52607.75
2023-05-16T16:58:25.277Z,52577.75
2023-05-16T17:03:31.028Z,52659.75
2023-05-16T17:08:35.232Z,52721.75
2023-05-16T17:13:42.044Z,52761.75
2023-05-16T17:18:47.886Z,52825.78
2023-05-16T17:23:52.452Z,52829.78
2023-05-16T17:28:58.850Z,52813.78
2023-05-16T17:34:04.497Z,52805.78
2023-05-16T17:39:10.707Z,52841.78
2023-05-16T17:44:15.060Z,52845.78
2023-05-16T17:49:21.813Z,52835.78
2023-05-16T17:54:30.770Z,52801.78
2023-05-16T17:59:36.507Z,52845.78
2023-05-16T18:04:42.188Z,52841.78
2023-05-16T18:09:46.625Z,52827.78
2023-05-16T18:14:50.915Z,52865.78
2023-05-16T18:19:56.964Z,52873.78
2023-05-16T18:25:01.575Z,52799.78
2023-05-16T18:30:07.586Z,52823.78
2023-05-16T18:35:13.542Z,52835.78
2023-05-16T18:40:18.374Z,52861.78
2023-05-16T18:45:23.271Z,52863.78
2023-05-16T18:50:29.171Z,52865.78
2023-05-16T18:55:33.960Z,52869.78
2023-05-16T19:00:38.455Z,52803.78
2023-05-16T19:05:44.384Z,52853.78
2023-05-16T19:10:48.809Z,52855.78
2023-05-16T19:15:53.671Z,52861.78
2023-05-16T19:20:59.295Z,52855.78
2023-05-16T19:26:03.792Z,52851.78
2023-05-16T19:31:08.380Z,52807.78
2023-05-16T19:36:14.772Z,52847.78
2023-05-16T19:41:19.327Z,52877.78
2023-05-16T19:46:24.017Z,52847.78
2023-05-16T19:51:40.650Z,52829.78
2023-05-16T19:56:45.819Z,52833.78
2023-05-16T20:01:50.096Z,52767.75
2023-05-16T20:06:55.824Z,52777.75
2023-05-16T20:12:00.212Z,52767.75
2023-05-16T20:17:04.855Z,52749.75
2023-05-16T20:22:10.950Z,52731.75
2023-05-16T20:27:15.165Z,52745.75
2023-05-16T20:32:19.737Z,52741.75
2023-05-16T20:37:26.915Z,52753.75
2023-05-16T20:42:31.277Z,52719.75
2023-05-16T20:47:35.609Z,52739.75
2023-05-16T20:52:41.284Z,52753.75
2023-05-16T20:57:45.675Z,52737.75
2023-05-16T21:02:49.917Z,52695.75
2023-05-16T21:07:55.959Z,52723.75
2023-05-16T21:13:00.107Z,52641.75
2023-05-16T21:18:04.330Z,52661.75
2023-05-16T21:23:09.951Z,52673.75
2023-05-16T21:28:14.532Z,52593.75
2023-05-16T21:33:18.986Z,52645.75
2023-05-16T21:38:24.691Z,52595.75
2023-05-16T21:43:29.076Z,52533.72
2023-05-16T21:48:33.988Z,52573.75
2023-05-16T21:53:39.772Z,52613.75
2023-05-16T21:58:44.176Z,52551.72
2023-05-16T22:03:49.343Z,52549.72
2023-05-16T22:08:55.385Z,52559.72
2023-05-16T22:13:59.583Z,52607.75
2023-05-16T22:19:03.942Z,52599.75
2023-05-16T22:24:11.265Z,52555.72
2023-05-16T22:29:15.806Z,52553.72
2023-05-16T22:34:20.169Z,52555.72
2023-05-16T22:39:26.052Z,52533.72
2023-05-16T22:44:30.447Z,52539.72
2023-05-16T22:49:34.607Z,52525.72
2023-05-16T22:54:41.987Z,52517.72
2023-05-16T22:59:46.121Z,52527.72
2023-05-16T23:04:50.605Z,52567.72
2023-05-16T23:09:56.533Z,52501.72
2023-05-16T23:15:00.763Z,52539.72
2023-05-16T23:20:05.459Z,52521.72
2023-05-16T23:25:11.731Z,52509.72
2023-05-16T23:30:16.763Z,52527.72
2023-05-16T23:35:21.039Z,52561.72
2023-05-16T23:40:26.642Z,52585.75
2023-05-16T23:45:31.416Z,52573.75
2023-05-16T23:50:35.790Z,52545.72
2023-05-16T23:55:41.401Z,52547.72
